Terminal Aerodrome Forecast
Issued by NWS Sterling, VA

Current Version | Previous Version | Text Only | Print | Product List | Glossary Off
Versions: 1 2 3 4 5 6 7 8 9 10 11 12 13 14 15 16 17 18 19 20 21 22 23 24 25 26 27 28 29 30

000
FTUS41 KLWX 250700 AAA
TAFDCA
TAF AMD
KDCA 250754Z 2508/2606 31007KT P6SM -SHRA OVC015
     FM251000 30007KT P6SM OVC060
     FM251400 27009KT P6SM SCT250
     FM251700 29013G21KT P6SM SCT250
     FM252200 29009KT P6SM FEW250
     FM260200 28005KT P6SM SKC=

USA.gov is the U.S. government's official web portal to all federal, state and local government web resources and services.